AirNav  
 
 417 users online  

KGAB Gabbs Airport
Gabbs, Nevada, USA


FAA INFORMATION EFFECTIVE 07 DECEMBER 2017

Location

FAA Identifier: GAB
Lat/Long: 38-55-26.7280N / 117-57-32.4260W
38-55.445467N / 117-57.540433W
38.9240911 / -117.9590072
(estimated)
Elevation: 4700 ft. / 1433 m (estimated)
Variation: 15E (1985)
From city: 4 miles NW of GABBS, NV
Time zone: UTC -8 (UTC -7 during Daylight Saving Time)
Zip code: 89409

Airport Operations

Airport use: Open to the public
Activation date: 09/1943
Control tower: no
ARTCC: OAKLAND CENTER
FSS: RENO FLIGHT SERVICE STATION
NOTAMs facility: RNO (NOTAM-D service available)
Attendance: UNATNDD
Wind indicator: yes
Segmented circle: yes
Beacon: ARPT BEACON OTS INDEFLY.

Airport Communications

CTAF: 122.9

Nearby radio navigation aids

VOR radial/distance  VOR name  Freq  Var
MVAr352/21.8MINA VORTAC115.1017E

Airport Services

Parking: tiedowns
Airframe service: NONE
Powerplant service: NONE
Bottled oxygen: NONE
Bulk oxygen: NONE

Runway Information

Runway 9/27

Dimensions: 5900 x 65 ft. / 1798 x 20 m
Surface: dirt, in good condition
RUNWAY 9  RUNWAY 27
Gradient: 0.9%0.9%
Traffic pattern: leftleft

Runway 16/34

Dimensions: 2800 x 65 ft. / 853 x 20 m
Surface: dirt, in good condition
RUNWAY 16  RUNWAY 34
Traffic pattern: leftleft

Airport Ownership and Management from official FAA records

Ownership: Publicly-owned
Owner: NYE COUNTY
BOX 1031
TONOPAH, NV 89049
Phone (775) 209-4174
Manager: TIM CARLO
250 N. HWY 160 #2
PAHRUMP, NV 89060
Phone (775) 751-6262
EMERGENCY CONTACT COUNTY AIRPORT OPERATIONS 775-513-3107

Airport Operational Statistics

Aircraft based on the field: 1
Single engine airplanes: 1
    
Aircraft operations: 200/year *
50% transient general aviation
50% local general aviation
* for 12-month period ending 30 June 2015

Additional Remarks

RCMD LAND RWY 09; TKOF RWY 27 WIND PMTG.
RWY 09/27 & RWY 16/34 NO LINE OF SIGHT BTN RWYS.

Instrument Procedures

There are no published instrument procedures at KGAB.

Some nearby airports with instrument procedures:

KHTH - Hawthorne Industrial Airport (39 nm SW)
KNFL - Fallon Naval Air Station (Van Voorhis Field) Airport (45 nm NW)
KFLX - Fallon Municipal Airport (50 nm NW)
KTPH - Tonopah Airport (66 nm SE)
KSPZ - Silver Springs Airport (67 nm NW)
 
Loc | Ops | Rwys | IFR | FBO | Links
Com | Nav | Svcs | Stats | Notes


 
Area around KGAB (Gabbs Airport)
 
Road maps at: MapQuest Bing Google
 
Aerial photo
WARNING: Photo may not be current or correct
Aerial photo of KGAB (Gabbs Airport)
Chris Mullins
Photo taken 29-Sep-2004

Do you have a better or more recent aerial photo of Gabbs Airport that you would like to share? If so, please send us your photo.

 
Sectional chart

 
Airport distance calculator
Flying to Gabbs Airport? Find the distance to fly.

From to KGAB

Sunrise and sunset
Times for 16-Dec-2017
 Local
(UTC-8)
 Zulu
(UTC)
Morning civil twilight06:3514:35
Sunrise07:0515:05
Sunset16:3000:30
Evening civil twilight17:0001:00

Current date and time
Zulu (UTC)  17-Dec-2017 07:19:55
Local (UTC-8)  16-Dec-2017 23:19:55
 
METAR
KHTH 
39nm SW 
170655Z AUTO 27007KT 10SM SCT049 SCT055 M02/M09 A3018 RMK A01
KNFL 
45nm NW 
170656Z AUTO 10004KT 10SM CLR M04/M11 A3021 RMK AO2 SLP193 T10441106
KTMT 
48nm NE 
170655Z AUTO 20004KT 10SM BKN038 M12/M14 A3016 RMK AO2 T11191141
TAF
KNFL 
45nm NW 
1623/1723 36015G24KT 9999 SCT030 520109 521009 531909 532809 QNH3008INS FM170000 02012KT 9999 SCT050 SCT200 520109 521009 531909 532809 QNH3010INS FM170400 VRB06KT 9999 FEW050 SCT200 520109 521009 531909 532809 T04/1623Z TM10/1714Z FS30018
NOTAMs
Click for the latest NOTAMs
NOTAMs are issued by the DoD/FAA and will open in a separate window not controlled by AirNav.

 

 
 

Would you like to see your business listed on this page?

 If your business provides an interesting product or service to pilots, flight crews, aircraft, or users of the Gabbs Airport, you should consider listing it here.  To start the listing process, click on the button below
 
Add a business
 

Other Pages about Gabbs Airport

Update a link
 
Copyright © AirNav, LLC. All rights reserved. Privacy Policy  Contact